sensor_id;sensor_type;location;lat;lon;timestamp;pressure;altitude;pressure_sealevel;temperature;humidity
7441;BME280;29616;51.950;8.572;2023-03-21T00:02:19;100143.13;;;9.82;100.00
7441;BME280;29616;51.950;8.572;2023-03-21T00:04:51;100131.38;;;9.72;100.00
7441;BME280;29616;51.950;8.572;2023-03-21T00:07:24;100134.94;;;9.82;100.00
7441;BME280;29616;51.950;8.572;2023-03-21T00:09:56;100128.88;;;9.88;100.00
7441;BME280;29616;51.950;8.572;2023-03-21T00:12:40;100135.66;;;9.84;100.00
7441;BME280;29616;51.950;8.572;2023-03-21T00:15:10;100136.06;;;9.89;100.00
7441;BME280;29616;51.950;8.572;2023-03-21T00:17:40;100117.28;;;9.77;100.00
7441;BME280;29616;51.950;8.572;2023-03-21T00:20:10;100130.03;;;9.86;100.00
7441;BME280;29616;51.950;8.572;2023-03-21T00:22:42;100125.28;;;9.88;100.00
7441;BME280;29616;51.950;8.572;2023-03-21T00:25:11;100121.84;;;9.86;100.00
7441;BME280;29616;51.950;8.572;2023-03-21T00:27:40;100125.16;;;9.89;100.00
7441;BME280;29616;51.950;8.572;2023-03-21T00:30:29;100119.41;;;9.92;100.00
7441;BME280;29616;51.950;8.572;2023-03-21T00:32:58;100119.94;;;9.96;100.00
7441;BME280;29616;51.950;8.572;2023-03-21T00:35:41;100116.50;;;9.94;100.00
7441;BME280;29616;51.950;8.572;2023-03-21T00:38:33;100109.19;;;9.85;100.00
7441;BME280;29616;51.950;8.572;2023-03-21T00:41:04;100085.78;;;9.82;100.00
7441;BME280;29616;51.950;8.572;2023-03-21T00:43:48;100113.06;;;9.92;100.00
7441;BME280;29616;51.950;8.572;2023-03-21T00:46:19;100115.09;;;9.90;100.00
7441;BME280;29616;51.950;8.572;2023-03-21T00:48:52;100118.88;;;9.79;100.00
7441;BME280;29616;51.950;8.572;2023-03-21T00:51:22;100106.53;;;9.65;100.00
7441;BME280;29616;51.950;8.572;2023-03-21T00:53:54;100087.66;;;9.26;100.00
7441;BME280;29616;51.950;8.572;2023-03-21T00:56:28;100106.00;;;9.43;100.00
7441;BME280;29616;51.950;8.572;2023-03-21T00:58:56;100105.13;;;9.52;100.00
7441;BME280;29616;51.950;8.572;2023-03-21T01:01:27;100100.22;;;9.55;100.00
7441;BME280;29616;51.950;8.572;2023-03-21T01:04:00;100095.09;;;9.52;100.00
7441;BME280;29616;51.950;8.572;2023-03-21T01:06:35;100081.19;;;9.36;100.00
7441;BME280;29616;51.950;8.572;2023-03-21T01:09:08;100078.72;;;9.52;100.00
7441;BME280;29616;51.950;8.572;2023-03-21T01:11:41;100083.00;;;9.45;100.00
7441;BME280;29616;51.950;8.572;2023-03-21T01:14:11;100068.38;;;9.37;100.00
7441;BME280;29616;51.950;8.572;2023-03-21T01:16:54;100073.53;;;9.49;100.00
7441;BME280;29616;51.950;8.572;2023-03-21T01:19:23;100083.31;;;9.42;100.00
7441;BME280;29616;51.950;8.572;2023-03-21T01:22:15;100081.59;;;9.41;100.00
7441;BME280;29616;51.950;8.572;2023-03-21T01:24:44;100083.88;;;9.46;100.00
7441;BME280;29616;51.950;8.572;2023-03-21T01:27:23;100089.75;;;9.60;100.00
7441;BME280;29616;51.950;8.572;2023-03-21T01:29:54;100080.25;;;9.64;100.00
7441;BME280;29616;51.950;8.572;2023-03-21T01:32:23;100076.25;;;9.59;100.00
7441;BME280;29616;51.950;8.572;2023-03-21T01:34:53;100080.25;;;9.64;100.00
7441;BME280;29616;51.950;8.572;2023-03-21T01:37:22;100079.53;;;9.62;100.00
7441;BME280;29616;51.950;8.572;2023-03-21T01:39:53;100085.84;;;9.72;100.00
7441;BME280;29616;51.950;8.572;2023-03-21T01:42:21;100080.38;;;9.72;100.00
7441;BME280;29616;51.950;8.572;2023-03-21T01:44:54;100050.81;;;9.58;100.00
7441;BME280;29616;51.950;8.572;2023-03-21T01:47:32;100068.88;;;9.79;100.00
7441;BME280;29616;51.950;8.572;2023-03-21T01:50:15;100072.91;;;9.74;100.00
7441;BME280;29616;51.950;8.572;2023-03-21T01:52:56;100062.72;;;9.77;100.00
7441;BME280;29616;51.950;8.572;2023-03-21T01:55:27;100069.75;;;9.79;100.00
7441;BME280;29616;51.950;8.572;2023-03-21T01:58:00;100062.25;;;9.71;100.00
7441;BME280;29616;51.950;8.572;2023-03-21T02:01:00;100068.47;;;9.73;100.00
7441;BME280;29616;51.950;8.572;2023-03-21T02:03:38;100033.34;;;9.51;100.00
7441;BME280;29616;51.950;8.572;2023-03-21T02:06:47;100064.28;;;9.69;100.00
7441;BME280;29616;51.950;8.572;2023-03-21T02:09:32;100065.72;;;9.73;100.00
7441;BME280;29616;51.950;8.572;2023-03-21T02:12:03;100062.59;;;9.68;100.00
7441;BME280;29616;51.950;8.572;2023-03-21T02:14:35;100045.66;;;9.55;100.00
7441;BME280;29616;51.950;8.572;2023-03-21T02:17:21;100047.09;;;9.59;100.00
7441;BME280;29616;51.950;8.572;2023-03-21T02:20:06;100047.97;;;9.60;100.00
7441;BME280;29616;51.950;8.572;2023-03-21T02:23:15;100044.38;;;9.59;100.00
7441;BME280;29616;51.950;8.572;2023-03-21T02:29:24;100038.09;;;9.49;100.00
7441;BME280;29616;51.950;8.572;2023-03-21T02:32:02;100029.28;;;9.65;100.00
7441;BME280;29616;51.950;8.572;2023-03-21T02:35:11;100033.03;;;9.54;100.00
7441;BME280;29616;51.950;8.572;2023-03-21T02:37:45;100034.31;;;9.60;100.00
7441;BME280;29616;51.950;8.572;2023-03-21T02:40:31;100019.22;;;9.56;100.00
7441;BME280;29616;51.950;8.572;2023-03-21T02:43:03;100028.41;;;9.64;100.00
7441;BME280;29616;51.950;8.572;2023-03-21T02:45:48;100031.00;;;9.56;100.00
7441;BME280;29616;51.950;8.572;2023-03-21T02:48:20;100028.75;;;9.52;100.00
7441;BME280;29616;51.950;8.572;2023-03-21T02:51:00;100029.91;;;9.49;100.00
7441;BME280;29616;51.950;8.572;2023-03-21T02:53:33;100017.72;;;9.44;100.00
7441;BME280;29616;51.950;8.572;2023-03-21T02:56:07;100017.25;;;9.48;100.00
7441;BME280;29616;51.950;8.572;2023-03-21T02:58:41;100033.34;;;9.51;100.00
7441;BME280;29616;51.950;8.572;2023-03-21T03:01:11;100025.59;;;9.47;100.00
7441;BME280;29616;51.950;8.572;2023-03-21T03:03:46;100026.34;;;9.39;100.00
7441;BME280;29616;51.950;8.572;2023-03-21T03:06:16;100001.94;;;9.38;100.00
7441;BME280;29616;51.950;8.572;2023-03-21T03:08:51;100034.75;;;9.55;100.00
7441;BME280;29616;51.950;8.572;2023-03-21T03:11:30;100029.84;;;9.59;100.00
7441;BME280;29616;51.950;8.572;2023-03-21T03:14:12;100002.31;;;9.52;100.00
7441;BME280;29616;51.950;8.572;2023-03-21T03:17:12;99988.03;;;9.31;100.00
7441;BME280;29616;51.950;8.572;2023-03-21T03:19:59;100018.78;;;9.70;100.00
7441;BME280;29616;51.950;8.572;2023-03-21T03:22:47;100015.56;;;9.74;100.00
7441;BME280;29616;51.950;8.572;2023-03-21T03:25:20;100001.13;;;9.64;100.00
7441;BME280;29616;51.950;8.572;2023-03-21T03:28:07;100007.22;;;9.86;100.00
7441;BME280;29616;51.950;8.572;2023-03-21T03:30:38;100007.91;;;9.88;100.00
7441;BME280;29616;51.950;8.572;2023-03-21T03:33:26;100005.34;;;9.86;100.00
7441;BME280;29616;51.950;8.572;2023-03-21T03:35:56;99998.03;;;9.87;100.00
7441;BME280;29616;51.950;8.572;2023-03-21T03:38:35;99986.38;;;9.85;100.00
7441;BME280;29616;51.950;8.572;2023-03-21T03:41:09;99999.53;;;9.99;100.00
7441;BME280;29616;51.950;8.572;2023-03-21T03:43:48;99992.38;;;9.98;100.00
7441;BME280;29616;51.950;8.572;2023-03-21T03:46:27;99998.22;;;10.03;100.00
7441;BME280;29616;51.950;8.572;2023-03-21T03:48:59;100001.66;;;10.05;100.00
7441;BME280;29616;51.950;8.572;2023-03-21T03:51:32;99993.38;;;9.97;100.00
7441;BME280;29616;51.950;8.572;2023-03-21T03:54:13;99990.34;;;10.00;100.00
7441;BME280;29616;51.950;8.572;2023-03-21T03:56:46;99989.06;;;9.94;100.00
7441;BME280;29616;51.950;8.572;2023-03-21T03:59:15;99979.81;;;9.77;100.00
7441;BME280;29616;51.950;8.572;2023-03-21T04:01:57;99988.66;;;9.89;100.00
7441;BME280;29616;51.950;8.572;2023-03-21T04:04:27;99994.66;;;9.93;100.00
7441;BME280;29616;51.950;8.572;2023-03-21T04:07:00;99992.66;;;9.95;100.00
7441;BME280;29616;51.950;8.572;2023-03-21T04:09:30;99994.25;;;9.88;100.00
7441;BME280;29616;51.950;8.572;2023-03-21T04:12:16;99979.50;;;9.81;100.00
7441;BME280;29616;51.950;8.572;2023-03-21T04:15:07;99980.59;;;9.88;100.00
7441;BME280;29616;51.950;8.572;2023-03-21T04:17:40;99984.47;;;9.95;100.00
7441;BME280;29616;51.950;8.572;2023-03-21T04:20:09;99933.25;;;9.52;100.00
7441;BME280;29616;51.950;8.572;2023-03-21T04:22:49;99962.44;;;9.79;100.00
7441;BME280;29616;51.950;8.572;2023-03-21T04:25:20;99982.91;;;9.92;100.00
7441;BME280;29616;51.950;8.572;2023-03-21T04:28:02;99966.84;;;9.80;100.00
7441;BME280;29616;51.950;8.572;2023-03-21T04:30:47;99971.81;;;9.94;100.00
7441;BME280;29616;51.950;8.572;2023-03-21T04:33:31;99975.53;;;10.02;100.00
7441;BME280;29616;51.950;8.572;2023-03-21T04:36:06;99973.63;;;10.12;100.00
7441;BME280;29616;51.950;8.572;2023-03-21T04:38:36;99968.19;;;10.03;100.00
7441;BME280;29616;51.950;8.572;2023-03-21T04:41:07;99975.34;;;10.13;100.00
7441;BME280;29616;51.950;8.572;2023-03-21T04:43:38;99970.59;;;10.15;100.00
7441;BME280;29616;51.950;8.572;2023-03-21T04:46:07;99968.28;;;10.11;100.00
7441;BME280;29616;51.950;8.572;2023-03-21T04:48:35;99963.56;;;10.13;100.00
7441;BME280;29616;51.950;8.572;2023-03-21T04:51:06;99950.00;;;10.21;100.00
7441;BME280;29616;51.950;8.572;2023-03-21T04:53:36;99953.13;;;10.26;100.00
7441;BME280;29616;51.950;8.572;2023-03-21T04:56:05;99946.19;;;10.14;100.00
7441;BME280;29616;51.950;8.572;2023-03-21T04:58:33;99945.50;;;10.29;100.00
7441;BME280;29616;51.950;8.572;2023-03-21T05:01:05;99947.66;;;10.26;100.00
7441;BME280;29616;51.950;8.572;2023-03-21T05:03:33;99947.56;;;10.18;100.00
7441;BME280;29616;51.950;8.572;2023-03-21T05:06:08;99953.72;;;10.20;100.00
7441;BME280;29616;51.950;8.572;2023-03-21T05:08:37;99955.94;;;10.34;100.00
7441;BME280;29616;51.950;8.572;2023-03-21T05:11:07;99948.44;;;10.36;100.00
7441;BME280;29616;51.950;8.572;2023-03-21T05:13:35;99931.88;;;10.20;100.00
7441;BME280;29616;51.950;8.572;2023-03-21T05:16:08;99943.28;;;10.33;100.00
7441;BME280;29616;51.950;8.572;2023-03-21T05:18:37;99947.75;;;10.34;100.00
7441;BME280;29616;51.950;8.572;2023-03-21T05:21:15;99951.88;;;10.38;100.00
7441;BME280;29616;51.950;8.572;2023-03-21T05:23:47;99926.81;;;10.25;100.00
7441;BME280;29616;51.950;8.572;2023-03-21T05:26:23;99947.56;;;10.35;100.00
7441;BME280;29616;51.950;8.572;2023-03-21T05:29:06;99943.22;;;10.43;100.00
7441;BME280;29616;51.950;8.572;2023-03-21T05:31:39;99949.56;;;10.43;100.00
7441;BME280;29616;51.950;8.572;2023-03-21T05:34:11;99945.41;;;10.39;100.00
7441;BME280;29616;51.950;8.572;2023-03-21T05:36:43;99919.72;;;10.32;100.00
7441;BME280;29616;51.950;8.572;2023-03-21T05:39:13;99945.19;;;10.50;100.00
7441;BME280;29616;51.950;8.572;2023-03-21T05:41:53;99945.78;;;10.44;100.00
7441;BME280;29616;51.950;8.572;2023-03-21T05:44:23;99947.53;;;10.45;100.00
7441;BME280;29616;51.950;8.572;2023-03-21T05:46:53;99942.66;;;10.39;100.00
7441;BME280;29616;51.950;8.572;2023-03-21T05:49:30;99947.59;;;10.53;100.00
7441;BME280;29616;51.950;8.572;2023-03-21T05:52:01;99950.16;;;10.55;100.00
7441;BME280;29616;51.950;8.572;2023-03-21T05:54:30;99951.59;;;10.59;100.00
7441;BME280;29616;51.950;8.572;2023-03-21T05:57:02;99938.94;;;10.58;100.00
7441;BME280;29616;51.950;8.572;2023-03-21T05:59:49;99947.50;;;10.63;100.00
7441;BME280;29616;51.950;8.572;2023-03-21T06:02:21;99944.47;;;10.66;100.00
7441;BME280;29616;51.950;8.572;2023-03-21T06:04:53;99945.41;;;10.74;100.00
7441;BME280;29616;51.950;8.572;2023-03-21T06:07:25;99941.50;;;10.77;100.00
7441;BME280;29616;51.950;8.572;2023-03-21T06:09:54;99946.91;;;10.94;100.00
7441;BME280;29616;51.950;8.572;2023-03-21T06:12:24;99897.91;;;10.75;100.00
7441;BME280;29616;51.950;8.572;2023-03-21T06:15:17;99952.41;;;10.94;100.00
7441;BME280;29616;51.950;8.572;2023-03-21T06:18:02;99947.97;;;10.93;100.00
7441;BME280;29616;51.950;8.572;2023-03-21T06:20:31;99948.03;;;11.02;100.00
7441;BME280;29616;51.950;8.572;2023-03-21T06:23:07;99952.78;;;11.00;100.00
7441;BME280;29616;51.950;8.572;2023-03-21T06:25:36;99944.19;;;10.94;100.00
7441;BME280;29616;51.950;8.572;2023-03-21T06:28:05;99951.59;;;11.02;100.00
7441;BME280;29616;51.950;8.572;2023-03-21T06:30:38;99943.88;;;10.98;100.00
7441;BME280;29616;51.950;8.572;2023-03-21T06:33:19;99937.41;;;10.99;100.00
7441;BME280;29616;51.950;8.572;2023-03-21T06:35:50;99937.78;;;10.86;100.00
7441;BME280;29616;51.950;8.572;2023-03-21T06:38:21;99948.72;;;11.04;100.00
7441;BME280;29616;51.950;8.572;2023-03-21T06:40:49;99920.81;;;11.00;100.00
7441;BME280;29616;51.950;8.572;2023-03-21T06:43:22;99948.91;;;11.10;100.00
7441;BME280;29616;51.950;8.572;2023-03-21T06:45:51;99940.19;;;11.07;100.00
7441;BME280;29616;51.950;8.572;2023-03-21T06:48:23;99934.78;;;11.15;100.00
7441;BME280;29616;51.950;8.572;2023-03-21T06:50:52;99927.28;;;11.17;100.00
7441;BME280;29616;51.950;8.572;2023-03-21T06:53:26;99942.94;;;11.32;100.00
7441;BME280;29616;51.950;8.572;2023-03-21T06:56:26;99938.28;;;11.25;100.00
7441;BME280;29616;51.950;8.572;2023-03-21T06:58:57;99946.56;;;11.41;100.00
7441;BME280;29616;51.950;8.572;2023-03-21T07:01:50;99951.38;;;11.47;100.00
7441;BME280;29616;51.950;8.572;2023-03-21T07:04:20;99948.28;;;11.42;100.00
7441;BME280;29616;51.950;8.572;2023-03-21T07:06:50;99945.94;;;11.55;100.00
7441;BME280;29616;51.950;8.572;2023-03-21T07:09:21;99946.78;;;11.47;100.00
7441;BME280;29616;51.950;8.572;2023-03-21T07:11:53;99944.56;;;11.51;100.00
7441;BME280;29616;51.950;8.572;2023-03-21T07:14:25;99949.38;;;11.49;100.00
7441;BME280;29616;51.950;8.572;2023-03-21T07:16:54;99942.03;;;11.83;100.00
7441;BME280;29616;51.950;8.572;2023-03-21T07:19:24;99944.47;;;11.94;100.00
7441;BME280;29616;51.950;8.572;2023-03-21T07:21:54;99951.94;;;11.76;100.00
7441;BME280;29616;51.950;8.572;2023-03-21T07:24:24;99936.09;;;11.62;100.00
7441;BME280;29616;51.950;8.572;2023-03-21T07:26:55;99954.69;;;11.84;100.00
7441;BME280;29616;51.950;8.572;2023-03-21T07:29:25;99963.28;;;11.89;100.00
7441;BME280;29616;51.950;8.572;2023-03-21T07:31:54;99932.56;;;11.70;100.00
7441;BME280;29616;51.950;8.572;2023-03-21T07:34:25;99957.59;;;11.83;100.00
7441;BME280;29616;51.950;8.572;2023-03-21T07:37:03;99955.94;;;11.98;100.00
7441;BME280;29616;51.950;8.572;2023-03-21T07:39:34;99949.75;;;11.88;100.00
7441;BME280;29616;51.950;8.572;2023-03-21T07:42:04;99954.63;;;12.10;100.00
7441;BME280;29616;51.950;8.572;2023-03-21T07:44:38;99948.22;;;11.93;100.00
7441;BME280;29616;51.950;8.572;2023-03-21T07:47:08;99954.41;;;11.95;100.00
7441;BME280;29616;51.950;8.572;2023-03-21T07:49:38;99949.53;;;11.73;100.00
7441;BME280;29616;51.950;8.572;2023-03-21T07:52:07;99955.25;;;11.62;100.00
7441;BME280;29616;51.950;8.572;2023-03-21T07:54:35;99953.31;;;11.80;100.00
7441;BME280;29616;51.950;8.572;2023-03-21T07:57:05;99955.75;;;11.91;100.00
7441;BME280;29616;51.950;8.572;2023-03-21T07:59:33;99958.25;;;11.77;100.00
7441;BME280;29616;51.950;8.572;2023-03-21T08:02:04;99959.66;;;11.81;100.00
7441;BME280;29616;51.950;8.572;2023-03-21T08:04:34;99960.09;;;11.68;100.00
7441;BME280;29616;51.950;8.572;2023-03-21T08:07:06;99958.94;;;11.71;100.00
7441;BME280;29616;51.950;8.572;2023-03-21T08:09:35;99956.34;;;11.69;100.00
7441;BME280;29616;51.950;8.572;2023-03-21T08:12:06;99957.44;;;11.84;100.00
7441;BME280;29616;51.950;8.572;2023-03-21T08:14:36;99960.16;;;11.76;100.00
7441;BME280;29616;51.950;8.572;2023-03-21T08:17:06;99971.78;;;11.78;100.00
7441;BME280;29616;51.950;8.572;2023-03-21T08:19:35;99963.69;;;11.43;100.00
7441;BME280;29616;51.950;8.572;2023-03-21T08:22:07;99960.50;;;11.55;100.00
7441;BME280;29616;51.950;8.572;2023-03-21T08:24:36;99976.88;;;11.22;100.00
7441;BME280;29616;51.950;8.572;2023-03-21T08:27:06;99973.50;;;11.28;100.00
7441;BME280;29616;51.950;8.572;2023-03-21T08:29:36;99966.63;;;11.24;100.00
7441;BME280;29616;51.950;8.572;2023-03-21T08:32:09;99967.75;;;11.13;100.00
7441;BME280;29616;51.950;8.572;2023-03-21T08:34:39;99977.94;;;11.29;100.00
7441;BME280;29616;51.950;8.572;2023-03-21T08:37:11;99977.97;;;10.85;100.00
7441;BME280;29616;51.950;8.572;2023-03-21T08:39:41;99977.25;;;10.83;100.00
7441;BME280;29616;51.950;8.572;2023-03-21T08:42:12;99978.59;;;10.79;100.00
7441;BME280;29616;51.950;8.572;2023-03-21T08:44:42;99974.78;;;10.72;100.00
7441;BME280;29616;51.950;8.572;2023-03-21T08:47:13;99982.56;;;10.85;100.00
7441;BME280;29616;51.950;8.572;2023-03-21T08:49:42;99979.03;;;10.92;100.00
7441;BME280;29616;51.950;8.572;2023-03-21T08:52:15;99978.41;;;10.99;100.00
7441;BME280;29616;51.950;8.572;2023-03-21T08:54:44;99980.19;;;11.08;100.00
7441;BME280;29616;51.950;8.572;2023-03-21T08:57:12;99980.91;;;11.10;100.00
7441;BME280;29616;51.950;8.572;2023-03-21T08:59:42;99974.34;;;11.03;100.00
7441;BME280;29616;51.950;8.572;2023-03-21T09:02:12;99978.63;;;11.05;100.00
7441;BME280;29616;51.950;8.572;2023-03-21T09:04:43;99963.56;;;10.83;100.00
7441;BME280;29616;51.950;8.572;2023-03-21T09:07:39;99978.56;;;10.97;100.00
7441;BME280;29616;51.950;8.572;2023-03-21T09:10:10;99969.41;;;10.88;100.00
7441;BME280;29616;51.950;8.572;2023-03-21T09:12:50;99977.59;;;10.80;100.00
7441;BME280;29616;51.950;8.572;2023-03-21T09:15:19;99977.63;;;10.88;100.00
7441;BME280;29616;51.950;8.572;2023-03-21T09:17:52;99969.22;;;10.64;100.00
7441;BME280;29616;51.950;8.572;2023-03-21T09:20:25;99970.47;;;10.87;100.00
7441;BME280;29616;51.950;8.572;2023-03-21T09:22:59;99974.75;;;10.90;100.00
7441;BME280;29616;51.950;8.572;2023-03-21T09:25:29;99970.78;;;10.84;100.00
7441;BME280;29616;51.950;8.572;2023-03-21T09:27:59;99951.94;;;10.81;100.00
7441;BME280;29616;51.950;8.572;2023-03-21T09:30:33;99967.53;;;11.07;100.00
7441;BME280;29616;51.950;8.572;2023-03-21T09:33:05;99972.72;;;11.18;100.00
7441;BME280;29616;51.950;8.572;2023-03-21T09:35:39;99976.06;;;11.04;100.00
7441;BME280;29616;51.950;8.572;2023-03-21T09:38:11;99976.94;;;11.04;100.00
7441;BME280;29616;51.950;8.572;2023-03-21T09:40:49;99976.72;;;11.23;100.00
7441;BME280;29616;51.950;8.572;2023-03-21T09:43:33;99969.41;;;11.32;100.00
7441;BME280;29616;51.950;8.572;2023-03-21T09:46:07;99946.28;;;11.01;100.00
7441;BME280;29616;51.950;8.572;2023-03-21T09:48:44;99957.28;;;11.09;100.00
7441;BME280;29616;51.950;8.572;2023-03-21T09:51:24;99972.53;;;11.11;100.00
7441;BME280;29616;51.950;8.572;2023-03-21T09:53:59;99972.66;;;11.27;100.00
7441;BME280;29616;51.950;8.572;2023-03-21T09:56:30;99969.09;;;11.35;100.00
7441;BME280;29616;51.950;8.572;2023-03-21T09:59:02;99956.34;;;11.43;100.00
7441;BME280;29616;51.950;8.572;2023-03-21T10:01:34;99970.44;;;11.56;100.00
7441;BME280;29616;51.950;8.572;2023-03-21T10:04:10;99963.00;;;11.41;100.00
7441;BME280;29616;51.950;8.572;2023-03-21T10:06:42;99961.59;;;11.37;100.00
7441;BME280;29616;51.950;8.572;2023-03-21T10:09:15;99969.97;;;11.35;100.00
7441;BME280;29616;51.950;8.572;2023-03-21T10:11:49;99958.38;;;11.41;100.00
7441;BME280;29616;51.950;8.572;2023-03-21T10:14:26;99959.53;;;11.31;100.00
7441;BME280;29616;51.950;8.572;2023-03-21T10:17:06;99959.47;;;11.23;100.00
7441;BME280;29616;51.950;8.572;2023-03-21T10:19:48;99954.75;;;11.33;100.00
7441;BME280;29616;51.950;8.572;2023-03-21T10:22:23;99951.38;;;11.47;100.00
7441;BME280;29616;51.950;8.572;2023-03-21T10:24:54;99962.56;;;11.53;100.00
7441;BME280;29616;51.950;8.572;2023-03-21T10:27:22;99951.38;;;11.39;100.00
7441;BME280;29616;51.950;8.572;2023-03-21T10:29:51;99948.84;;;11.20;100.00
7441;BME280;29616;51.950;8.572;2023-03-21T10:32:19;99944.31;;;11.36;100.00
7441;BME280;29616;51.950;8.572;2023-03-21T10:34:52;99944.31;;;11.36;100.00
7441;BME280;29616;51.950;8.572;2023-03-21T10:37:28;99943.16;;;11.47;100.00
7441;BME280;29616;51.950;8.572;2023-03-21T10:40:00;99900.66;;;11.61;100.00
7441;BME280;29616;51.950;8.572;2023-03-21T10:42:29;99933.72;;;11.67;100.00
7441;BME280;29616;51.950;8.572;2023-03-21T10:45:04;99942.94;;;11.66;100.00
7441;BME280;29616;51.950;8.572;2023-03-21T10:47:41;99934.91;;;11.65;100.00
7441;BME280;29616;51.950;8.572;2023-03-21T10:50:11;99937.44;;;11.84;100.00
7441;BME280;29616;51.950;8.572;2023-03-21T10:52:42;99943.16;;;12.14;100.00
7441;BME280;29616;51.950;8.572;2023-03-21T10:55:20;99937.56;;;12.24;100.00
7441;BME280;29616;51.950;8.572;2023-03-21T10:57:52;99928.09;;;12.02;100.00
7441;BME280;29616;51.950;8.572;2023-03-21T11:00:26;99937.13;;;12.03;100.00
7441;BME280;29616;51.950;8.572;2023-03-21T11:02:56;99930.66;;;12.12;100.00
7441;BME280;29616;51.950;8.572;2023-03-21T11:05:32;99926.69;;;11.98;100.00
7441;BME280;29616;51.950;8.572;2023-03-21T11:08:05;99931.28;;;11.98;100.00
7441;BME280;29616;51.950;8.572;2023-03-21T11:10:49;99936.28;;;12.02;100.00
7441;BME280;29616;51.950;8.572;2023-03-21T11:13:22;99930.81;;;12.02;100.00
7441;BME280;29616;51.950;8.572;2023-03-21T11:15:52;99926.44;;;11.76;100.00
7441;BME280;29616;51.950;8.572;2023-03-21T11:18:23;99938.56;;;11.73;100.00
7441;BME280;29616;51.950;8.572;2023-03-21T11:20:53;99924.34;;;11.70;100.00
7441;BME280;29616;51.950;8.572;2023-03-21T11:23:26;99927.38;;;12.00;100.00
7441;BME280;29616;51.950;8.572;2023-03-21T11:26:00;99914.56;;;12.09;100.00
7441;BME280;29616;51.950;8.572;2023-03-21T11:28:32;99922.66;;;12.27;100.00
7441;BME280;29616;51.950;8.572;2023-03-21T11:31:01;99919.00;;;12.02;100.00
7441;BME280;29616;51.950;8.572;2023-03-21T11:33:33;99922.66;;;12.27;100.00
7441;BME280;29616;51.950;8.572;2023-03-21T11:36:05;99924.94;;;12.47;100.00
7441;BME280;29616;51.950;8.572;2023-03-21T11:38:37;99913.56;;;12.18;100.00
7441;BME280;29616;51.950;8.572;2023-03-21T11:41:07;99919.91;;;12.19;100.00
7441;BME280;29616;51.950;8.572;2023-03-21T11:43:38;99917.88;;;12.37;100.00
7441;BME280;29616;51.950;8.572;2023-03-21T11:46:07;99913.75;;;12.25;100.00
7441;BME280;29616;51.950;8.572;2023-03-21T11:48:39;99908.25;;;12.25;100.00
7441;BME280;29616;51.950;8.572;2023-03-21T11:51:11;99906.22;;;12.27;100.00
7441;BME280;29616;51.950;8.572;2023-03-21T11:53:46;99900.66;;;11.94;100.00
7441;BME280;29616;51.950;8.572;2023-03-21T11:56:23;99888.13;;;11.84;100.00
7441;BME280;29616;51.950;8.572;2023-03-21T11:58:57;99891.19;;;11.81;100.00
7441;BME280;29616;51.950;8.572;2023-03-21T12:01:36;99883.03;;;11.63;100.00
7441;BME280;29616;51.950;8.572;2023-03-21T12:04:18;99870.59;;;11.69;100.00
7441;BME280;29616;51.950;8.572;2023-03-21T12:06:49;99862.69;;;11.66;100.00
7441;BME280;29616;51.950;8.572;2023-03-21T12:09:28;99875.38;;;11.67;100.00
7441;BME280;29616;51.950;8.572;2023-03-21T12:12:05;99870.31;;;11.80;100.00
7441;BME280;29616;51.950;8.572;2023-03-21T12:14:40;99857.56;;;12.04;100.00
7441;BME280;29616;51.950;8.572;2023-03-21T12:17:15;99871.44;;;12.19;100.00
7441;BME280;29616;51.950;8.572;2023-03-21T12:20:07;99863.34;;;12.01;100.00
7441;BME280;29616;51.950;8.572;2023-03-21T12:22:44;99865.13;;;12.19;100.00
7441;BME280;29616;51.950;8.572;2023-03-21T12:25:16;99858.44;;;12.21;100.00
7441;BME280;29616;51.950;8.572;2023-03-21T12:27:49;99859.28;;;12.30;100.00
7441;BME280;29616;51.950;8.572;2023-03-21T12:30:30;99850.34;;;12.03;100.00
7441;BME280;29616;51.950;8.572;2023-03-21T12:33:44;99806.81;;;11.84;100.00
7441;BME280;29616;51.950;8.572;2023-03-21T12:36:26;99811.28;;;11.77;100.00
7441;BME280;29616;51.950;8.572;2023-03-21T12:39:03;99829.50;;;12.27;100.00
7441;BME280;29616;51.950;8.572;2023-03-21T12:41:40;99838.41;;;12.37;100.00
7441;BME280;29616;51.950;8.572;2023-03-21T12:44:13;99816.84;;;12.42;100.00
7441;BME280;29616;51.950;8.572;2023-03-21T12:46:43;99838.75;;;12.58;100.00
7441;BME280;29616;51.950;8.572;2023-03-21T12:49:15;99812.38;;;12.25;100.00
7441;BME280;29616;51.950;8.572;2023-03-21T12:51:47;99832.25;;;12.35;100.00
7441;BME280;29616;51.950;8.572;2023-03-21T12:54:22;99819.22;;;12.77;100.00
7441;BME280;29616;51.950;8.572;2023-03-21T12:56:53;99739.25;;;12.17;100.00
7441;BME280;29616;51.950;8.572;2023-03-21T12:59:32;99765.09;;;12.31;100.00
7441;BME280;29616;51.950;8.572;2023-03-21T13:02:19;99805.31;;;12.70;100.00
7441;BME280;29616;51.950;8.572;2023-03-21T13:04:55;99712.56;;;11.87;100.00
7441;BME280;29616;51.950;8.572;2023-03-21T13:07:30;99815.75;;;12.83;100.00
7441;BME280;29616;51.950;8.572;2023-03-21T13:10:02;99789.41;;;12.74;100.00
7441;BME280;29616;51.950;8.572;2023-03-21T13:12:47;99818.53;;;12.59;100.00
7441;BME280;29616;51.950;8.572;2023-03-21T13:15:31;99819.22;;;12.61;100.00
7441;BME280;29616;51.950;8.572;2023-03-21T13:18:03;99805.19;;;12.64;100.00
7441;BME280;29616;51.950;8.572;2023-03-21T13:20:43;99728.47;;;12.32;100.00
7441;BME280;29616;51.950;8.572;2023-03-21T13:23:14;99728.59;;;12.54;100.00
7441;BME280;29616;51.950;8.572;2023-03-21T13:25:46;99793.38;;;13.26;100.00
7441;BME280;29616;51.950;8.572;2023-03-21T13:28:17;99792.00;;;13.30;100.00
7441;BME280;29616;51.950;8.572;2023-03-21T13:30:50;99729.16;;;12.97;100.00
7441;BME280;29616;51.950;8.572;2023-03-21T13:33:22;99783.69;;;13.47;100.00
7441;BME280;29616;51.950;8.572;2023-03-21T13:35:59;99783.81;;;13.84;100.00
7441;BME280;29616;51.950;8.572;2023-03-21T13:38:34;99787.25;;;13.86;100.00
7441;BME280;29616;51.950;8.572;2023-03-21T13:41:07;99785.22;;;13.80;100.00
7441;BME280;29616;51.950;8.572;2023-03-21T13:43:43;99757.44;;;13.75;100.00